Aviation Digital Data Service (ADDS)

Output produced by METARs form (1729 UTC 21 September 2019)
found at http://aviationweather.gov/metar/data/
 
KASD 211120Z 2112/2212 VRB03KT P6SM FEW035 FEW060 
     FM211800 10007KT P6SM SCT035 BKN070 
     FM212300 13005KT P6SM FEW030 SCT070 
     FM220500 00000KT P6SM SKC